createdAt,value
2018-07-12T00:02:15.031Z,76.53
2018-07-12T00:04:42.995Z,77.17
2018-07-12T00:07:10.652Z,77.15
2018-07-12T00:09:38.279Z,76.98
2018-07-12T00:12:06.490Z,77.08
2018-07-12T00:14:35.010Z,76.22
2018-07-12T00:17:02.658Z,74.06
2018-07-12T00:19:30.676Z,73.71
2018-07-12T00:21:58.303Z,73.41
2018-07-12T00:24:25.927Z,72.90
2018-07-12T00:26:53.571Z,72.25
2018-07-12T00:29:21.278Z,74.78
2018-07-12T00:31:48.913Z,77.42
2018-07-12T00:34:17.015Z,77.96
2018-07-12T00:36:44.675Z,77.79
2018-07-12T00:39:12.299Z,75.31
2018-07-12T00:41:39.945Z,74.17
2018-07-12T00:44:07.568Z,73.28
2018-07-12T00:46:35.208Z,72.66
2018-07-12T00:49:03.178Z,72.89
2018-07-12T00:51:30.874Z,71.69
2018-07-12T00:53:58.518Z,73.43
2018-07-12T00:56:26.638Z,72.80
2018-07-12T00:58:54.318Z,72.71
2018-07-12T01:01:21.945Z,72.74
2018-07-12T01:03:49.579Z,73.39
2018-07-12T01:06:17.270Z,74.00
2018-07-12T01:08:44.944Z,73.57
2018-07-12T01:11:12.658Z,73.41
2018-07-12T01:13:40.314Z,73.62
2018-07-12T01:16:07.932Z,73.77
2018-07-12T01:18:35.671Z,73.34
2018-07-12T01:21:03.340Z,73.01
2018-07-12T01:23:31.094Z,72.71
2018-07-12T01:25:58.719Z,74.51
2018-07-12T01:28:26.374Z,74.62
2018-07-12T01:30:53.991Z,76.44
2018-07-12T01:33:21.622Z,77.11
2018-07-12T01:35:49.363Z,76.12
2018-07-12T01:38:17.052Z,74.76
2018-07-12T01:40:44.739Z,73.56
2018-07-12T01:43:12.426Z,73.39
2018-07-12T01:45:40.083Z,73.89
2018-07-12T01:48:08.208Z,74.42
2018-07-12T01:50:35.919Z,74.29
2018-07-12T01:53:03.897Z,74.49
2018-07-12T01:55:32.164Z,73.76
2018-07-12T01:58:00.314Z,72.64
2018-07-12T02:00:27.953Z,72.13
2018-07-12T02:02:55.933Z,72.37
2018-07-12T02:05:23.597Z,72.51
2018-07-12T02:07:51.330Z,73.91
2018-07-12T02:10:19.343Z,74.99
2018-07-12T02:12:46.977Z,75.33
2018-07-12T02:15:14.627Z,76.38
2018-07-12T02:17:42.253Z,75.81
2018-07-12T02:20:10.204Z,75.07
2018-07-12T02:22:37.858Z,74.79
2018-07-12T02:25:05.577Z,75.18
2018-07-12T02:27:33.238Z,76.10
2018-07-12T02:30:00.852Z,74.99
2018-07-12T02:32:29.461Z,74.78
2018-07-12T02:34:57.272Z,77.20
2018-07-12T02:37:24.954Z,77.61
2018-07-12T02:39:52.591Z,77.55
2018-07-12T02:42:20.531Z,77.96
2018-07-12T02:44:48.180Z,79.05
2018-07-12T02:47:16.079Z,78.78
2018-07-12T02:49:43.984Z,78.92
2018-07-12T02:52:12.658Z,78.86
2018-07-12T02:54:40.469Z,78.71
2018-07-12T02:57:08.170Z,78.43
2018-07-12T02:59:36.103Z,78.94
2018-07-12T03:02:03.929Z,78.62
2018-07-12T03:04:32.681Z,78.30
2018-07-12T03:07:00.307Z,78.39
2018-07-12T03:09:27.931Z,77.89
2018-07-12T03:11:55.879Z,78.17
2018-07-12T03:14:24.135Z,77.78
2018-07-12T03:16:51.760Z,77.44
2018-07-12T03:19:19.394Z,78.38
2018-07-12T03:21:47.035Z,79.14
2018-07-12T03:24:14.670Z,79.00
2018-07-12T03:26:42.302Z,78.69
2018-07-12T03:29:09.975Z,78.35
2018-07-12T03:31:37.968Z,78.97
2018-07-12T03:34:06.059Z,78.70
2018-07-12T03:36:33.727Z,78.69
2018-07-12T03:39:01.363Z,79.06
2018-07-12T03:41:28.992Z,79.87
2018-07-12T03:43:56.706Z,79.18
2018-07-12T03:46:24.343Z,78.37
2018-07-12T03:48:51.982Z,79.50
2018-07-12T03:51:19.895Z,78.02
2018-07-12T03:53:47.611Z,77.47
2018-07-12T03:56:15.238Z,76.34
2018-07-12T03:58:43.439Z,75.96
2018-07-12T04:01:11.219Z,76.07
2018-07-12T04:03:39.716Z,75.76
2018-07-12T04:06:08.271Z,75.20
2018-07-12T04:08:35.943Z,74.69
2018-07-12T04:11:03.604Z,74.90
2018-07-12T04:13:31.243Z,75.35
2018-07-12T04:15:58.874Z,75.56
2018-07-12T04:18:26.766Z,74.71
2018-07-12T04:20:54.731Z,74.67
2018-07-12T04:23:22.363Z,75.72
2018-07-12T04:25:49.997Z,74.45
2018-07-12T04:28:17.814Z,74.34
2018-07-12T04:30:45.676Z,74.27
2018-07-12T04:33:13.995Z,73.95
2018-07-12T04:35:41.935Z,73.54
2018-07-12T04:38:09.570Z,73.93
2018-07-12T04:40:37.570Z,73.35
2018-07-12T04:43:05.266Z,71.91
2018-07-12T04:45:32.923Z,70.84
2018-07-12T04:48:00.634Z,71.03
2018-07-12T04:50:28.522Z,69.10
2018-07-12T04:52:56.544Z,72.06
2018-07-12T04:55:24.786Z,72.26
2018-07-12T04:57:52.448Z,71.52
2018-07-12T05:00:20.590Z,71.38
2018-07-12T05:02:48.659Z,67.32
2018-07-12T05:05:16.277Z,64.57
2018-07-12T05:07:44.583Z,59.98
2018-07-12T05:10:12.695Z,56.48
2018-07-12T05:12:42.215Z,57.28
2018-07-12T05:15:10.175Z,59.22
2018-07-12T05:17:37.792Z,59.51
2018-07-12T05:20:05.454Z,59.69
2018-07-12T05:22:33.374Z,57.36
2018-07-12T05:25:01.015Z,56.17
2018-07-12T05:27:28.721Z,55.67
2018-07-12T05:29:56.633Z,58.37
2018-07-12T05:32:24.995Z,58.51
2018-07-12T05:34:52.705Z,57.38
2018-07-12T05:37:22.439Z,57.80
2018-07-12T05:39:52.435Z,52.95
2018-07-12T05:42:22.318Z,48.57
2018-07-12T05:44:52.191Z,45.57
2018-07-12T05:47:21.564Z,46.08
2018-07-12T05:49:50.931Z,40.76
2018-07-12T05:52:20.793Z,40.70
2018-07-12T05:54:50.035Z,38.91
2018-07-12T05:57:19.336Z,38.50
2018-07-12T05:59:49.011Z,40.51
2018-07-12T06:02:21.546Z,43.24
2018-07-12T06:04:51.637Z,45.21
2018-07-12T06:07:26.242Z,45.97
2018-07-12T06:09:56.195Z,47.18
2018-07-12T06:12:26.626Z,46.29
2018-07-12T06:14:55.903Z,48.01
2018-07-12T06:17:25.238Z,49.20
2018-07-12T06:19:55.091Z,48.65
2018-07-12T06:22:24.691Z,51.01
2018-07-12T06:24:54.262Z,51.30
2018-07-12T06:27:23.609Z,51.77
2018-07-12T06:29:53.422Z,51.80
2018-07-12T06:32:22.906Z,51.69
2018-07-12T06:34:52.039Z,52.08
2018-07-12T06:37:21.144Z,52.41
2018-07-12T06:39:50.243Z,53.54
2018-07-12T06:42:19.386Z,54.77
2018-07-12T06:44:48.903Z,54.11
2018-07-12T06:47:18.446Z,54.97
2018-07-12T06:49:47.346Z,54.12
2018-07-12T06:52:16.948Z,55.83
2018-07-12T06:54:46.143Z,54.85
2018-07-12T06:57:16.773Z,54.47
2018-07-12T06:59:45.866Z,55.46
2018-07-12T07:02:14.981Z,55.70
2018-07-12T07:04:44.133Z,55.43
2018-07-12T07:07:13.781Z,56.38
2018-07-12T07:09:42.922Z,56.39
2018-07-12T07:12:12.011Z,56.14
2018-07-12T07:14:41.145Z,56.44
2018-07-12T07:17:10.369Z,56.97
2018-07-12T07:19:39.674Z,55.98
2018-07-12T07:22:08.952Z,57.94
2018-07-12T07:24:38.498Z,59.02
2018-07-12T07:27:07.594Z,57.68
2018-07-12T07:29:36.746Z,59.50
2018-07-12T07:32:05.876Z,60.74
2018-07-12T07:34:35.015Z,61.93
2018-07-12T07:37:04.162Z,65.89
2018-07-12T07:39:33.254Z,68.55
2018-07-12T07:42:02.436Z,71.53
2018-07-12T07:44:32.346Z,73.13
2018-07-12T07:47:01.774Z,71.60
2018-07-12T07:49:31.138Z,71.27
2018-07-12T07:52:00.418Z,70.08
2018-07-12T07:54:29.703Z,68.89
2018-07-12T07:56:58.913Z,69.84
2018-07-12T07:59:28.310Z,70.35
2018-07-12T08:01:57.662Z,72.23
2018-07-12T08:04:27.959Z,71.86
2018-07-12T08:06:57.270Z,72.41
2018-07-12T08:09:26.541Z,74.07
2018-07-12T08:11:55.779Z,74.82
2018-07-12T08:14:25.091Z,78.19
2018-07-12T08:16:53.851Z,80.25
2018-07-12T08:19:22.986Z,84.52
2018-07-12T08:22:03.350Z,83.15
2018-07-12T08:24:32.483Z,79.88
2018-07-12T08:27:01.620Z,75.67
2018-07-12T08:29:31.085Z,73.91
2018-07-12T08:32:01.166Z,73.22
2018-07-12T08:34:30.339Z,70.69
2018-07-12T08:36:59.538Z,69.66
2018-07-12T08:39:28.590Z,66.77
2018-07-12T08:41:57.758Z,65.79
2018-07-12T08:44:26.872Z,64.79
2018-07-12T08:46:55.959Z,61.09
2018-07-12T08:49:25.902Z,57.35
2018-07-12T08:51:55.026Z,56.37
2018-07-12T08:54:24.145Z,53.61
2018-07-12T08:56:53.341Z,48.41
2018-07-12T08:59:22.483Z,46.00
2018-07-12T09:01:51.597Z,45.72
2018-07-12T09:04:21.395Z,44.02
2018-07-12T09:06:51.323Z,40.06
2018-07-12T09:09:20.562Z,40.08
2018-07-12T09:11:49.820Z,38.93
2018-07-12T09:14:19.438Z,40.52
2018-07-12T09:16:49.215Z,36.82
2018-07-12T09:19:19.283Z,38.91
2018-07-12T09:21:49.224Z,46.49
2018-07-12T09:24:19.131Z,45.04
2018-07-12T09:26:48.999Z,40.98
2018-07-12T09:29:18.399Z,36.20
2018-07-12T09:31:47.998Z,43.58
2018-07-12T09:34:18.078Z,44.30
2018-07-12T09:36:47.875Z,49.45
2018-07-12T09:39:17.810Z,46.09
2018-07-12T09:41:47.135Z,42.40
2018-07-12T09:44:16.622Z,43.53
2018-07-12T09:46:45.898Z,41.58
2018-07-12T09:49:15.346Z,43.79
2018-07-12T09:51:44.311Z,44.50
2018-07-12T09:54:13.411Z,46.72
2018-07-12T09:56:59.366Z,51.97
2018-07-12T09:59:28.799Z,50.29
2018-07-12T10:02:02.838Z,38.02
2018-07-12T10:04:32.458Z,30.42
2018-07-12T10:07:07.567Z,32.43
2018-07-12T10:09:41.877Z,27.21
2018-07-12T10:12:16.299Z,29.97
2018-07-12T10:14:51.594Z,31.03
2018-07-12T10:17:25.888Z,32.18
2018-07-12T10:19:55.029Z,30.54
2018-07-12T10:22:24.748Z,31.57
2018-07-12T10:24:53.890Z,27.07
2018-07-12T10:27:23.151Z,30.37
2018-07-12T10:29:52.890Z,28.12
2018-07-12T10:32:22.106Z,28.42
2018-07-12T10:34:51.508Z,25.40
2018-07-12T10:37:21.019Z,22.30
2018-07-12T10:39:50.947Z,19.55
2018-07-12T10:42:20.450Z,20.91
2018-07-12T10:44:50.402Z,23.66
2018-07-12T10:47:19.699Z,29.99
2018-07-12T10:49:49.068Z,32.11
2018-07-12T10:52:18.346Z,26.12
2018-07-12T10:54:48.018Z,25.78
2018-07-12T10:57:17.139Z,28.72
2018-07-12T10:59:46.246Z,25.33
2018-07-12T11:02:15.383Z,23.45
2018-07-12T11:04:46.398Z,24.64
2018-07-12T11:07:15.647Z,24.66
2018-07-12T11:09:44.955Z,25.67
2018-07-12T11:12:14.430Z,29.73
2018-07-12T11:14:43.666Z,33.36
2018-07-12T11:17:12.755Z,33.37
2018-07-12T11:19:41.882Z,36.69
2018-07-12T11:22:10.964Z,35.94
2018-07-12T11:24:41.067Z,37.24
2018-07-12T11:27:10.195Z,37.76
2018-07-12T11:29:54.974Z,39.42
2018-07-12T11:32:24.100Z,40.05
2018-07-12T11:34:53.283Z,37.59
2018-07-12T11:37:25.978Z,35.92
2018-07-12T11:39:55.143Z,37.45
2018-07-12T11:42:24.018Z,37.93
2018-07-12T11:44:53.135Z,38.43
2018-07-12T11:47:22.312Z,35.65
2018-07-12T11:49:51.397Z,34.67
2018-07-12T11:52:20.515Z,32.79
2018-07-12T11:54:49.617Z,31.10
2018-07-12T11:57:18.728Z,30.14
2018-07-12T11:59:47.847Z,27.52
2018-07-12T12:02:16.926Z,28.12
2018-07-12T12:04:46.014Z,28.81
2018-07-12T12:07:15.127Z,26.64
2018-07-12T12:09:45.051Z,27.59
2018-07-12T12:12:14.240Z,27.26
2018-07-12T12:14:43.450Z,27.53
2018-07-12T12:17:12.776Z,27.17
2018-07-12T12:19:42.190Z,34.25
2018-07-12T12:22:12.486Z,37.21
2018-07-12T12:24:42.170Z,37.45
2018-07-12T12:27:11.863Z,39.40
2018-07-12T12:29:41.090Z,39.96
2018-07-12T12:32:10.874Z,39.34
2018-07-12T12:34:39.787Z,38.38
2018-07-12T12:37:09.123Z,36.41
2018-07-12T12:39:38.258Z,35.42
2018-07-12T12:42:07.350Z,34.56
2018-07-12T12:44:37.263Z,26.45
2018-07-12T12:47:07.278Z,22.13
2018-07-12T12:49:36.643Z,26.82
2018-07-12T12:52:05.990Z,28.31
2018-07-12T12:54:35.275Z,32.53
2018-07-12T12:57:05.468Z,30.62
2018-07-12T12:59:35.243Z,29.43
2018-07-12T13:02:05.108Z,29.03
2018-07-12T13:04:34.429Z,25.91
2018-07-12T13:07:04.347Z,23.74
2018-07-12T13:09:33.571Z,27.31
2018-07-12T13:12:03.460Z,25.66
2018-07-12T13:14:33.246Z,26.21
2018-07-12T13:17:02.583Z,28.90
2018-07-12T13:19:32.236Z,30.30
2018-07-12T13:22:02.615Z,26.60
2018-07-12T13:24:31.867Z,25.08
2018-07-12T13:27:01.077Z,25.26
2018-07-12T13:29:30.274Z,26.70
2018-07-12T13:32:00.192Z,25.83
2018-07-12T13:34:30.083Z,24.59
2018-07-12T13:37:00.506Z,26.72
2018-07-12T13:39:29.634Z,25.17
2018-07-12T13:41:58.915Z,25.32
2018-07-12T13:44:28.070Z,28.49
2018-07-12T13:46:57.165Z,28.28
2018-07-12T13:49:26.258Z,23.99
2018-07-12T13:51:55.379Z,25.61
2018-07-12T13:54:24.487Z,27.92
2018-07-12T13:56:53.768Z,30.44
2018-07-12T13:59:22.909Z,27.33
2018-07-12T14:01:52.071Z,27.36
2018-07-12T14:04:21.183Z,28.07
2018-07-12T14:06:50.382Z,23.88
2018-07-12T14:09:19.529Z,22.75
2018-07-12T14:11:48.673Z,23.83
2018-07-12T14:14:18.184Z,26.49
2018-07-12T14:16:48.139Z,26.63
2018-07-12T14:19:18.062Z,27.85
2018-07-12T14:21:48.019Z,31.09
2018-07-12T14:24:17.999Z,32.62
2018-07-12T14:26:47.351Z,29.62
2018-07-12T14:29:16.998Z,33.52
2018-07-12T14:31:46.909Z,36.54
2018-07-12T14:34:16.785Z,38.16
2018-07-12T14:36:46.010Z,40.01
2018-07-12T14:39:15.230Z,37.92
2018-07-12T14:41:44.578Z,37.46
2018-07-12T14:44:14.036Z,32.79
2018-07-12T14:46:43.827Z,32.78
2018-07-12T14:49:13.803Z,34.06
2018-07-12T14:51:43.816Z,34.56
2018-07-12T14:54:13.658Z,32.03
2018-07-12T14:56:43.623Z,26.09
2018-07-12T14:59:13.395Z,23.78
2018-07-12T15:01:42.486Z,21.77
2018-07-12T15:04:11.803Z,23.77
2018-07-12T15:06:40.974Z,26.64
2018-07-12T15:09:10.634Z,27.38
2018-07-12T15:11:39.574Z,25.91
2018-07-12T15:14:08.986Z,29.08
2018-07-12T15:16:38.135Z,29.39
2018-07-12T15:19:07.258Z,29.63
2018-07-12T15:21:36.739Z,31.72
2018-07-12T15:24:06.535Z,32.03
2018-07-12T15:26:35.986Z,34.53
2018-07-12T15:29:05.419Z,36.59
2018-07-12T15:31:35.077Z,38.04
2018-07-12T15:34:04.934Z,39.30
2018-07-12T15:36:34.250Z,39.21
2018-07-12T15:39:06.319Z,38.08
2018-07-12T15:41:35.414Z,34.97
2018-07-12T15:44:04.546Z,35.65
2018-07-12T15:46:33.943Z,35.54
2018-07-12T15:49:03.426Z,37.41
2018-07-12T15:51:37.820Z,38.40
2018-07-12T15:54:06.906Z,39.22
2018-07-12T15:56:36.033Z,39.50
2018-07-12T15:59:05.202Z,40.64
2018-07-12T16:01:34.335Z,41.46
2018-07-12T16:04:03.454Z,41.99
2018-07-12T16:06:32.947Z,42.18
2018-07-12T16:09:02.506Z,41.78
2018-07-12T16:11:31.795Z,42.66
2018-07-12T16:14:00.922Z,42.60
2018-07-12T16:16:30.000Z,41.66
2018-07-12T16:19:00.035Z,41.78
2018-07-12T16:21:29.151Z,40.24
2018-07-12T16:23:58.243Z,41.59
2018-07-12T16:26:27.367Z,42.23
2018-07-12T16:28:56.463Z,40.98
2018-07-12T16:31:26.323Z,39.82
2018-07-12T16:33:55.433Z,39.59
2018-07-12T16:36:24.522Z,39.42
2018-07-12T16:38:54.650Z,38.75
2018-07-12T16:41:24.074Z,37.07
2018-07-12T16:43:53.484Z,32.54
2018-07-12T16:46:22.701Z,31.99
2018-07-12T16:48:52.506Z,31.60
2018-07-12T16:51:21.750Z,31.15
2018-07-12T16:53:51.254Z,30.10
2018-07-12T16:56:20.491Z,29.52
2018-07-12T16:58:49.863Z,28.64
2018-07-12T17:01:19.010Z,29.33
2018-07-12T17:03:48.106Z,28.90
2018-07-12T17:06:17.955Z,29.60
2018-07-12T17:08:47.591Z,30.09
2018-07-12T17:11:16.694Z,30.50
2018-07-12T17:13:45.836Z,30.98
2018-07-12T17:16:14.962Z,31.74
2018-07-12T17:18:44.287Z,31.30
2018-07-12T17:21:14.530Z,31.47
2018-07-12T17:23:44.200Z,32.20
2018-07-12T17:26:13.813Z,31.38
2018-07-12T17:28:43.869Z,34.20
2018-07-12T17:31:14.129Z,35.06
2018-07-12T17:33:44.829Z,35.02
2018-07-12T17:36:13.906Z,36.46
2018-07-12T17:38:42.993Z,36.11
2018-07-12T17:41:12.193Z,35.73
2018-07-12T17:43:41.282Z,35.49
2018-07-12T17:46:11.073Z,35.55
2018-07-12T17:48:40.167Z,35.86
2018-07-12T17:51:12.155Z,36.37
2018-07-12T17:53:42.000Z,36.31
2018-07-12T17:56:11.932Z,37.22
2018-07-12T17:58:41.491Z,36.80
2018-07-12T18:01:10.930Z,37.73
2018-07-12T18:03:40.274Z,37.25
2018-07-12T18:06:09.990Z,38.24
2018-07-12T18:08:39.786Z,38.14
2018-07-12T18:11:09.099Z,38.15
2018-07-12T18:13:37.935Z,35.86
2018-07-12T18:16:07.138Z,38.08
2018-07-12T18:18:36.252Z,36.73
2018-07-12T18:21:06.482Z,37.65
2018-07-12T18:23:35.554Z,38.06
2018-07-12T18:26:06.499Z,39.40
2018-07-12T18:28:35.609Z,39.62
2018-07-12T18:31:05.187Z,39.35
2018-07-12T18:33:34.302Z,39.40
2018-07-12T18:36:04.811Z,39.59
2018-07-12T18:38:33.910Z,40.18
2018-07-12T18:41:03.393Z,40.78
2018-07-12T18:43:33.312Z,40.90
2018-07-12T18:46:03.198Z,40.93
2018-07-12T18:48:33.159Z,41.61
2018-07-12T18:51:02.427Z,42.13
2018-07-12T18:53:32.471Z,43.40
2018-07-12T18:56:02.048Z,44.03
2018-07-12T18:58:31.631Z,44.48
2018-07-12T19:01:01.107Z,45.01
2018-07-12T19:03:30.283Z,46.09
2018-07-12T19:06:00.039Z,47.86
2018-07-12T19:08:30.146Z,46.23
2018-07-12T19:10:59.923Z,46.91
2018-07-12T19:13:29.815Z,47.90
2018-07-12T19:15:59.747Z,48.61
2018-07-12T19:18:29.179Z,49.77
2018-07-12T19:20:58.943Z,50.54
2018-07-12T19:23:29.774Z,50.58
2018-07-12T19:25:59.257Z,52.18
2018-07-12T19:28:28.338Z,51.66
2018-07-12T19:30:58.542Z,52.31
2018-07-12T19:33:27.686Z,52.45
2018-07-12T19:35:56.747Z,52.02
2018-07-12T19:38:26.040Z,53.08
2018-07-12T19:40:55.911Z,52.96
2018-07-12T19:43:26.490Z,53.54
2018-07-12T19:45:56.926Z,53.79
2018-07-12T19:48:26.307Z,55.15
2018-07-12T19:50:55.564Z,55.47
2018-07-12T19:53:24.797Z,55.71
2018-07-12T19:55:55.250Z,56.47
2018-07-12T19:58:25.011Z,56.05
2018-07-12T20:00:54.298Z,56.84
2018-07-12T20:03:23.713Z,57.58
2018-07-12T20:05:53.394Z,57.45
2018-07-12T20:08:22.878Z,58.39
2018-07-12T20:10:51.970Z,59.28
2018-07-12T20:13:21.060Z,59.12
2018-07-12T20:15:50.740Z,59.09
2018-07-12T20:18:19.941Z,60.55
2018-07-12T20:20:49.064Z,61.10
2018-07-12T20:23:18.465Z,60.42
2018-07-12T20:25:48.539Z,60.57
2018-07-12T20:28:18.479Z,61.24
2018-07-12T20:30:48.590Z,62.03
2018-07-12T20:33:18.307Z,62.10
2018-07-12T20:35:48.782Z,61.73
2018-07-12T20:38:18.583Z,61.94
2018-07-12T20:40:47.705Z,63.02
2018-07-12T20:43:20.854Z,62.35
2018-07-12T20:45:50.379Z,63.68
2018-07-12T20:48:19.698Z,63.94
2018-07-12T20:50:49.362Z,63.80
2018-07-12T20:53:19.318Z,64.93
2018-07-12T20:55:50.326Z,65.21
2018-07-12T20:58:19.406Z,64.99
2018-07-12T21:00:50.276Z,64.67
2018-07-12T21:03:19.394Z,65.63
2018-07-12T21:05:50.243Z,65.19
2018-07-12T21:08:19.539Z,64.94
2018-07-12T21:10:49.386Z,65.84
2018-07-12T21:13:19.322Z,67.95
2018-07-12T21:15:48.420Z,69.06
2018-07-12T21:18:17.546Z,69.95
2018-07-12T21:20:46.786Z,70.98
2018-07-12T21:23:16.590Z,70.28
2018-07-12T21:25:46.154Z,71.45
2018-07-12T21:28:15.648Z,70.82
2018-07-12T21:30:44.887Z,71.33
2018-07-12T21:33:14.595Z,71.26
2018-07-12T21:35:44.602Z,71.71
2018-07-12T21:38:14.435Z,73.12
2018-07-12T21:40:45.679Z,73.84
2018-07-12T21:43:15.110Z,74.71
2018-07-12T21:45:45.074Z,75.06
2018-07-12T21:48:14.487Z,75.02
2018-07-12T21:50:44.015Z,75.89
2018-07-12T21:53:13.494Z,76.72
2018-07-12T21:55:42.596Z,77.21
2018-07-12T21:58:11.742Z,78.20
2018-07-12T22:00:40.812Z,78.51
2018-07-12T22:03:09.963Z,79.01
2018-07-12T22:05:39.119Z,78.26
2018-07-12T22:08:14.568Z,77.37
2018-07-12T22:10:44.791Z,78.49
2018-07-12T22:13:14.483Z,80.04
2018-07-12T22:15:43.618Z,80.98
2018-07-12T22:18:12.775Z,81.46
2018-07-12T22:20:41.866Z,80.79
2018-07-12T22:23:11.251Z,80.79
2018-07-12T22:25:41.235Z,81.49
2018-07-12T22:28:10.522Z,82.73
2018-07-12T22:30:39.965Z,82.55
2018-07-12T22:33:09.306Z,82.98
2018-07-12T22:35:39.143Z,83.05
2018-07-12T22:38:08.482Z,83.56
2018-07-12T22:40:37.582Z,84.06
2018-07-12T22:43:06.675Z,84.69
2018-07-12T22:45:36.323Z,84.66
2018-07-12T22:48:05.499Z,85.70
2018-07-12T22:50:35.047Z,85.19
2018-07-12T22:53:04.134Z,86.66
2018-07-12T22:55:33.553Z,87.10
2018-07-12T22:58:02.647Z,87.92
2018-07-12T23:00:31.798Z,88.25
2018-07-12T23:03:00.898Z,89.06
2018-07-12T23:05:30.008Z,89.25
2018-07-12T23:07:59.189Z,90.43
2018-07-12T23:10:29.050Z,89.92
2018-07-12T23:12:59.031Z,90.34
2018-07-12T23:15:28.870Z,89.96
2018-07-12T23:17:58.186Z,89.37
2018-07-12T23:20:26.987Z,89.61
2018-07-12T23:22:56.123Z,91.43
2018-07-12T23:25:25.395Z,91.90
2018-07-12T23:27:54.619Z,92.05
2018-07-12T23:30:24.140Z,91.74
2018-07-12T23:32:53.258Z,92.83
2018-07-12T23:35:22.371Z,93.39
2018-07-12T23:37:51.842Z,93.08
2018-07-12T23:40:20.987Z,92.59
2018-07-12T23:42:50.167Z,93.66
2018-07-12T23:45:19.325Z,92.93
2018-07-12T23:47:48.410Z,92.51
2018-07-12T23:50:17.731Z,93.25
2018-07-12T23:52:46.854Z,94.23
2018-07-12T23:55:15.975Z,95.39
2018-07-12T23:57:45.115Z,95.57
